VietnamFixed distance
Vietnam Mountain Marathon 50km
30 Nov2024
Distance
47km
Finishers
657442 men215 women
Winning time
5:59:16h
Median pace
3.32km/h
Pace distribution
657 finishers · 2.55–7.85 km/h · mean 3.49
Every finisher ran the same 47 km course, so these paces are directly comparable.
Histogram of finisher pace. 657 finishers ranged from 2.55 to 7.85 kilometres per hour, with a mean of 3.49 and a median of 3.32. The busiest band is 3.0 to 3.5 kilometres per hour, with 203 finishers.
Results
Ranks 1–50 of 657
| Rank | Runner | Time | Pace | Cat. | Placing |
|---|---|---|---|---|---|
| 1 | Race Jungle | 5:59:16h | 7.85 | M23 | 1st M · 1st M23 |
| 2 | 4AM Runners | 6:03:56h | 7.75 | M23 | 2nd M · 2nd M23 |
| 3 | 6:08:33h | 7.65 | M23 | 3rd M · 3rd M23 | |
| 4 | 6:52:44h | 6.83 | M23 | 4th M · 4th M23 | |
| 5 | Vietnam Ultra Trail | 7:25:00h | 6.34 | W23 | 1st F · 1st W23 |
| 6 | 7:29:15h | 6.28 | M23 | 5th M · 5th M23 | |
| 7 | Antien Sport | 7:32:23h | 6.23 | M23 | 6th M · 6th M23 |
| 8 | 7:34:44h | 6.20 | W35 | 2nd F · 1st W35 | |
| 9 | 7:35:03h | 6.20 | W23 | 3rd F · 2nd W23 | |
| 10 | Happy Feet | 7:44:50h | 6.07 | M23 | 7th M · 7th M23 |
| 11 | Kilomet | 7:48:07h | 6.02 | M23 | 8th M · 8th M23 |
| 12 | 7:54:30h | 5.94 | M40 | 9th M · 1st M40 | |
| 13 | 7:57:30h | 5.91 | M23 | 10th M · 9th M23 | |
| 14 | Todovertical V+ | 8:11:11h | 5.74 | M45 | 11th M · 1st M45 |
| 15 | Vietnam Ultra Trail | 8:27:56h | 5.55 | M35 | 12th M · 1st M35 |
| 16 | Kilomet | 8:28:36h | 5.54 | MU23 | 13th M · 1st MU23 |
| 17 | 8:29:22h | 5.54 | W35 | 4th F · 2nd W35 | |
| 18 | Anta Hong Kong 100 | 8:39:24h | 5.43 | W50 | 5th F · 1st W50 |
| 19 | 8:44:07h | 5.38 | M23 | 14th M · 10th M23 | |
| 20 | 8:44:58h | 5.37 | M23 | 15th M · 11th M23 | |
| 21 | 8:46:07h | 5.36 | M23 | 16th M · 12th M23 | |
| 22 | 8:46:07h | 5.36 | M23 | 16th M · 12th M23 | |
| 23 | 8:46:08h | 5.36 | M23 | 18th M · 14th M23 | |
| 24 | HO Lon Team | 8:49:21h | 5.33 | M23 | 19th M · 15th M23 |
| 25 | 98Runners-Anta | 8:50:53h | 5.31 | M23 | 20th M · 16th M23 |
| 26 | 8:55:43h | 5.26 | M35 | 21st M · 2nd M35 | |
| 27 | ATC | 8:59:25h | 5.23 | M23 | 22nd M · 17th M23 |
| 28 | 8:59:29h | 5.23 | M40 | 23rd M · 2nd M40 | |
| 29 | Shopee | 9:04:36h | 5.18 | M23 | 24th M · 18th M23 |
| 30 | Superior | 9:04:56h | 5.17 | M40 | 25th M · 3rd M40 |
| 31 | 9:10:07h | 5.13 | M23 | 26th M · 19th M23 | |
| 32 | Chay VOI Maham | 9:20:28h | 5.03 | W45 | 6th F · 1st W45 |
| 33 | Sigbin Runners | 9:20:52h | 5.03 | M23 | 27th M · 20th M23 |
| 34 | Happy Feet | 9:23:34h | 5.00 | M23 | 28th M · 21st M23 |
| 35 | 9:27:45h | 4.97 | M40 | 29th M · 4th M40 | |
| 36 | Vietnam Ultra Trail | 9:29:43h | 4.95 | M23 | 30th M · 22nd M23 |
| 37 | DNR | 9:30:00h | 4.95 | M23 | 31st M · 23rd M23 |
| 38 | Run for Health | 9:30:00h | 4.95 | M23 | 31st M · 23rd M23 |
| 39 | 9:30:00h | 4.95 | W23 | 7th F · 3rd W23 | |
| 40 | Vietnam Ultra Trail | 9:34:21h | 4.91 | W23 | 8th F · 4th W23 |
| 41 | Shopee | 9:34:51h | 4.91 | W23 | 9th F · 5th W23 |
| 42 | Phúc LỢI Runer | 9:35:36h | 4.90 | M23 | 33rd M · 25th M23 |
| 43 | Không | 9:40:59h | 4.85 | W23 | 10th F · 6th W23 |
| 44 | Không | 9:44:45h | 4.82 | M23 | 34th M · 26th M23 |
| 45 | 9:47:50h | 4.80 | M55 | 35th M · 1st M55 | |
| 46 | 9:48:20h | 4.79 | M23 | 36th M · 27th M23 | |
| 47 | Maersk L&S | 9:48:22h | 4.79 | M23 | 37th M · 28th M23 |
| 48 | HÒA Bình Runner | 9:50:13h | 4.78 | W45 | 11th F · 2nd W45 |
| 49 | 9:50:25h | 4.78 | M23 | 38th M · 29th M23 | |
| 50 | OSV | 9:53:15h | 4.75 | M35 | 39th M · 3rd M35 |
- 1Race Jungle1st M · 1st M23Time5:59:16hPace7.85Cat.M23
- 24AM Runners2nd M · 2nd M23Time6:03:56hPace7.75Cat.M23
- 33rd M · 3rd M23Time6:08:33hPace7.65Cat.M23
- 44th M · 4th M23Time6:52:44hPace6.83Cat.M23
- 5Vietnam Ultra Trail1st F · 1st W23Time7:25:00hPace6.34Cat.W23
- 65th M · 5th M23Time7:29:15hPace6.28Cat.M23
- 7Antien Sport6th M · 6th M23Time7:32:23hPace6.23Cat.M23
- 82nd F · 1st W35Time7:34:44hPace6.20Cat.W35
- 93rd F · 2nd W23Time7:35:03hPace6.20Cat.W23
- 10Happy Feet7th M · 7th M23Time7:44:50hPace6.07Cat.M23
- 11Kilomet8th M · 8th M23Time7:48:07hPace6.02Cat.M23
- 129th M · 1st M40Time7:54:30hPace5.94Cat.M40
- 1310th M · 9th M23Time7:57:30hPace5.91Cat.M23
- 14Todovertical V+11th M · 1st M45Time8:11:11hPace5.74Cat.M45
- 15Vietnam Ultra Trail12th M · 1st M35Time8:27:56hPace5.55Cat.M35
- 16Kilomet13th M · 1st MU23Time8:28:36hPace5.54Cat.MU23
- 174th F · 2nd W35Time8:29:22hPace5.54Cat.W35
- 18Anta Hong Kong 1005th F · 1st W50Time8:39:24hPace5.43Cat.W50
- 1914th M · 10th M23Time8:44:07hPace5.38Cat.M23
- 2015th M · 11th M23Time8:44:58hPace5.37Cat.M23
- 2116th M · 12th M23Time8:46:07hPace5.36Cat.M23
- 2216th M · 12th M23Time8:46:07hPace5.36Cat.M23
- 2318th M · 14th M23Time8:46:08hPace5.36Cat.M23
- 24HO Lon Team19th M · 15th M23Time8:49:21hPace5.33Cat.M23
- 2598Runners-Anta20th M · 16th M23Time8:50:53hPace5.31Cat.M23
- 2621st M · 2nd M35Time8:55:43hPace5.26Cat.M35
- 27ATC22nd M · 17th M23Time8:59:25hPace5.23Cat.M23
- 2823rd M · 2nd M40Time8:59:29hPace5.23Cat.M40
- 29Shopee24th M · 18th M23Time9:04:36hPace5.18Cat.M23
- 30Superior25th M · 3rd M40Time9:04:56hPace5.17Cat.M40
- 3126th M · 19th M23Time9:10:07hPace5.13Cat.M23
- 32Chay VOI Maham6th F · 1st W45Time9:20:28hPace5.03Cat.W45
- 33Sigbin Runners27th M · 20th M23Time9:20:52hPace5.03Cat.M23
- 34Happy Feet28th M · 21st M23Time9:23:34hPace5.00Cat.M23
- 3529th M · 4th M40Time9:27:45hPace4.97Cat.M40
- 36Vietnam Ultra Trail30th M · 22nd M23Time9:29:43hPace4.95Cat.M23
- 37DNR31st M · 23rd M23Time9:30:00hPace4.95Cat.M23
- 38Run for Health31st M · 23rd M23Time9:30:00hPace4.95Cat.M23
- 397th F · 3rd W23Time9:30:00hPace4.95Cat.W23
- 40Vietnam Ultra Trail8th F · 4th W23Time9:34:21hPace4.91Cat.W23
- 41Shopee9th F · 5th W23Time9:34:51hPace4.91Cat.W23
- 42Phúc LỢI Runer33rd M · 25th M23Time9:35:36hPace4.90Cat.M23
- 43Không10th F · 6th W23Time9:40:59hPace4.85Cat.W23
- 44Không34th M · 26th M23Time9:44:45hPace4.82Cat.M23
- 4535th M · 1st M55Time9:47:50hPace4.80Cat.M55
- 4636th M · 27th M23Time9:48:20hPace4.79Cat.M23
- 47Maersk L&S37th M · 28th M23Time9:48:22hPace4.79Cat.M23
- 48HÒA Bình Runner11th F · 2nd W45Time9:50:13hPace4.78Cat.W45
- 4938th M · 29th M23Time9:50:25hPace4.78Cat.M23
- 50OSV39th M · 3rd M35Time9:53:15hPace4.75Cat.M35
Showing ranks 1–50 of 657